Time;durP1;ratioP1;P1;durP2;ratioP2;P2;SDS_P1;SDS_P2;PMS_P1;PMS_P2;Temp;Humidity;BMP_temperature;BMP_pressure;BME280_temperature;BME280_humidity;BME280_pressure;Samples;Min_cycle;Max_cycle;Signal;HPM_P1;HPM_P2
2021/12/23 00:01:11;;;;;;;5.68;4.43;;;-0.70;99.90;;;;;;5108687;28;20047;-85
2021/12/23 00:03:36;;;;;;;10.07;4.82;;;-1.70;99.90;;;;;;5084016;28;20043;-85
2021/12/23 00:06:02;;;;;;;5.22;4.38;;;-1.70;99.90;;;;;;5059580;28;20504;-85
2021/12/23 00:08:28;;;;;;;6.70;5.32;;;-1.70;99.90;;;;;;5088913;28;20062;-85
2021/12/23 00:10:54;;;;;;;4.75;4.18;;;-1.70;99.90;;;;;;5091426;28;20060;-85
2021/12/23 00:13:20;;;;;;;8.05;5.28;;;-1.60;99.90;;;;;;5072780;28;20047;-85
2021/12/23 00:23:44;;;;;;;5.93;4.55;;;-1.60;99.90;;;;;;5093154;28;20109;-85
2021/12/23 00:26:10;;;;;;;15.07;5.38;;;-0.40;99.90;;;;;;5093200;28;20499;-86
2021/12/23 00:28:36;;;;;;;9.10;5.07;;;-1.60;99.90;;;;;;5088779;28;20039;-85
2021/12/23 00:31:03;;;;;;;3.03;2.77;;;-1.60;99.90;;;;;;5091309;28;20457;-85
2021/12/23 00:33:30;;;;;;;7.53;5.85;;;-1.60;99.90;;;;;;5090040;28;20055;-85
2021/12/23 00:35:56;;;;;;;9.95;5.43;;;-1.60;99.90;;;;;;5096015;28;20056;-87
2021/12/23 00:38:34;;;;;;;7.13;5.38;;;-1.50;99.90;;;;;;5073586;28;20052;-85
2021/12/23 00:41:01;;;;;;;11.13;6.07;;;-1.50;99.90;;;;;;5093319;28;20039;-86
2021/12/23 00:43:29;;;;;;;9.95;4.75;;;-0.80;99.90;;;;;;5072823;28;20118;-85
2021/12/23 00:45:55;;;;;;;10.43;5.88;;;-1.50;99.90;;;;;;5105651;28;20118;-86
2021/12/23 00:48:21;;;;;;;8.55;5.15;;;-0.90;99.90;;;;;;5075630;28;20134;-86
2021/12/23 00:50:47;;;;;;;7.78;5.80;;;-1.00;99.90;;;;;;5115893;28;20089;-86
2021/12/23 00:53:18;;;;;;;13.40;5.38;;;-1.40;99.90;;;;;;5091397;28;20516;-86
2021/12/23 00:55:51;;;;;;;6.85;5.68;;;-1.50;99.90;;;;;;5092074;28;20032;-85
2021/12/23 00:58:18;;;;;;;9.50;5.13;;;-1.40;99.90;;;;;;5117202;28;20126;-85
2021/12/23 01:00:44;;;;;;;6.80;5.63;;;-1.40;99.90;;;;;;5108328;28;20367;-85
2021/12/23 01:03:10;;;;;;;6.30;5.45;;;-1.40;99.90;;;;;;5109450;28;20144;-86
2021/12/23 01:05:37;;;;;;;9.43;5.10;;;-0.80;99.90;;;;;;5107624;28;20040;-85
2021/12/23 01:08:03;;;;;;;20.83;6.93;;;-0.70;99.90;;;;;;5095312;28;20079;-86
2021/12/23 01:10:29;;;;;;;6.68;5.97;;;-1.40;99.90;;;;;;5092634;28;20052;-86
2021/12/23 01:12:59;;;;;;;11.30;6.95;;;-1.40;99.90;;;;;;5106540;28;20401;-85
2021/12/23 01:15:49;;;;;;;11.52;5.75;;;-1.40;99.90;;;;;;5066627;28;20044;-87
2021/12/23 01:18:18;;;;;;;;;;;-1.40;99.90;;;;;;5112214;28;20050;-85
2021/12/23 01:20:52;;;;;;;4.45;4.00;;;-1.10;99.90;;;;;;5092918;28;20009;-86
2021/12/23 01:23:22;;;;;;;6.55;5.93;;;-0.30;99.90;;;;;;5110223;28;20052;-86
2021/12/23 01:25:50;;;;;;;11.32;5.82;;;-1.30;99.90;;;;;;5081705;28;20044;-86
2021/12/23 01:28:15;;;;;;;10.45;6.00;;;-1.30;99.90;;;;;;5120095;28;20126;-86
2021/12/23 01:30:42;;;;;;;12.65;7.03;;;-1.10;99.90;;;;;;5090636;28;20399;-86
2021/12/23 01:33:10;;;;;;;10.95;6.38;;;-1.30;99.90;;;;;;5107710;28;20565;-85
2021/12/23 01:35:38;;;;;;;9.40;7.22;;;-1.20;99.90;;;;;;5105106;28;20062;-86
2021/12/23 01:38:04;;;;;;;15.55;6.50;;;-1.20;99.90;;;;;;5101365;28;20050;-85
2021/12/23 01:40:30;;;;;;;9.50;6.53;;;-0.80;99.90;;;;;;5091465;28;20560;-85
2021/12/23 01:42:57;;;;;;;10.07;7.32;;;-1.20;99.90;;;;;;5091140;28;20061;-85
2021/12/23 01:45:30;;;;;;;8.15;5.57;;;-1.20;99.90;;;;;;5110460;28;20055;-85
2021/12/23 01:47:57;;;;;;;11.60;6.68;;;-0.40;99.90;;;;;;5094647;28;20043;-85
2021/12/23 01:50:27;;;;;;;11.13;5.70;;;-1.20;99.90;;;;;;5077268;28;20039;-85
2021/12/23 01:52:58;;;;;;;10.23;5.75;;;-1.20;99.90;;;;;;5112440;28;20043;-85
2021/12/23 01:55:24;;;;;;;7.95;5.47;;;-1.20;99.90;;;;;;5094040;28;20037;-85
2021/12/23 01:57:50;;;;;;;8.35;5.80;;;-0.80;99.90;;;;;;5077576;28;20047;-85
2021/12/23 02:00:20;;;;;;;7.78;5.55;;;-1.20;99.90;;;;;;5095516;28;20048;-86
2021/12/23 02:02:45;;;;;;;12.57;6.93;;;-1.20;99.90;;;;;;5105622;28;20451;-85
2021/12/23 02:05:11;;;;;;;12.20;6.75;;;-1.20;99.90;;;;;;5110353;28;20044;-85
2021/12/23 02:07:37;;;;;;;7.65;5.68;;;-0.20;99.90;;;;;;5075328;28;20115;-85
2021/12/23 02:10:06;;;;;;;7.88;5.05;;;-1.20;99.90;;;;;;5095489;28;20047;-86
2021/12/23 02:12:32;;;;;;;10.48;6.30;;;-1.20;99.90;;;;;;5100187;28;20055;-85
2021/12/23 02:14:58;;;;;;;15.52;6.32;;;-0.30;99.90;;;;;;5092500;28;20039;-85
2021/12/23 02:17:23;;;;;;;11.45;6.72;;;-1.20;99.90;;;;;;5111520;28;20028;-87
2021/12/23 02:19:54;;;;;;;5.32;4.28;;;-1.20;99.90;;;;;;5090658;28;20478;-85
2021/12/23 02:22:20;;;;;;;7.72;6.90;;;-1.20;99.90;;;;;;5107319;28;20185;-86
2021/12/23 02:24:45;;;;;;;9.73;6.00;;;-1.20;99.90;;;;;;5110672;28;20122;-85
2021/12/23 02:27:11;;;;;;;11.25;6.55;;;-1.20;99.90;;;;;;5078569;28;20042;-85
2021/12/23 02:29:37;;;;;;;15.43;6.78;;;-0.20;99.90;;;;;;5092561;28;20146;-86
2021/12/23 02:32:05;;;;;;;10.77;5.18;;;-1.00;99.90;;;;;;5098444;28;20095;-87
2021/12/23 02:34:31;;;;;;;12.05;5.88;;;-1.20;99.90;;;;;;5108583;28;20136;-85
2021/12/23 02:36:59;;;;;;;7.20;5.38;;;-0.20;99.90;;;;;;5093901;28;20078;-84
2021/12/23 02:39:26;;;;;;;8.85;5.47;;;-1.20;99.90;;;;;;5092221;28;20515;-85
2021/12/23 02:41:53;;;;;;;13.63;5.57;;;-1.10;99.90;;;;;;5093049;28;20304;-85
2021/12/23 02:44:19;;;;;;;5.97;5.30;;;-1.10;99.90;;;;;;5103296;28;20044;-85
2021/12/23 02:46:45;;;;;;;7.33;5.60;;;-1.20;99.90;;;;;;5110403;28;20046;-85
2021/12/23 02:49:11;;;;;;;12.47;7.30;;;-1.10;99.90;;;;;;5109611;28;20039;-87
2021/12/23 02:51:38;;;;;;;11.77;5.75;;;-0.90;99.90;;;;;;5094160;28;20123;-85
2021/12/23 02:54:04;;;;;;;10.13;5.65;;;-1.10;99.90;;;;;;5110067;28;20044;-85
2021/12/23 02:56:30;;;;;;;11.73;6.55;;;-1.10;99.90;;;;;;5088824;28;20055;-85
2021/12/23 02:58:56;;;;;;;7.38;5.97;;;-1.10;99.90;;;;;;5094271;28;20498;-86
2021/12/23 03:01:23;;;;;;;10.18;5.97;;;-0.20;99.90;;;;;;5083810;28;20053;-85
2021/12/23 03:03:49;;;;;;;16.30;6.25;;;0.00;99.90;;;;;;5085952;28;20082;-85
2021/12/23 03:06:19;;;;;;;8.35;5.85;;;-1.40;99.90;;;;;;5093050;28;20075;-85
2021/12/23 03:08:59;;;;;;;9.75;6.20;;;-1.10;99.90;;;;;;5091904;28;20086;-85
2021/12/23 03:11:27;;;;;;;15.23;6.65;;;-1.00;99.90;;;;;;5108401;28;20062;-87
2021/12/23 03:13:54;;;;;;;14.30;6.82;;;-1.10;99.90;;;;;;5097637;28;20436;-85
2021/12/23 03:16:27;;;;;;;12.20;6.32;;;-1.10;99.90;;;;;;5108235;28;20464;-85
2021/12/23 03:18:53;;;;;;;11.25;6.03;;;-1.00;99.90;;;;;;5109284;28;20123;-85
2021/12/23 03:21:18;;;;;;;9.50;5.88;;;-1.10;99.90;;;;;;5094313;28;20452;-85
2021/12/23 03:23:44;;;;;;;13.10;6.32;;;0.00;99.90;;;;;;5108428;28;20086;-85
2021/12/23 03:26:10;;;;;;;11.55;6.63;;;-0.40;99.90;;;;;;5109871;28;20074;-84
2021/12/23 03:28:38;;;;;;;11.90;7.70;;;-1.00;99.90;;;;;;5108996;28;20477;-85
2021/12/23 03:31:04;;;;;;;8.57;5.82;;;-1.00;99.90;;;;;;5076897;28;20043;-85
2021/12/23 03:33:30;;;;;;;13.70;6.68;;;-1.00;99.90;;;;;;5108825;28;20945;-85
2021/12/23 03:35:56;;;;;;;12.33;6.13;;;-1.00;99.90;;;;;;5108110;28;20107;-85
2021/12/23 03:38:23;;;;;;;14.02;7.35;;;-1.00;99.90;;;;;;5077201;28;20158;-87
2021/12/23 03:40:49;;;;;;;13.75;6.78;;;-1.00;99.90;;;;;;5104984;28;20123;-85
2021/12/23 03:43:16;;;;;;;12.25;6.68;;;-0.20;99.90;;;;;;5107926;28;20040;-85
2021/12/23 03:45:43;;;;;;;7.88;6.05;;;-0.20;99.90;;;;;;5107281;28;20154;-85
2021/12/23 03:48:13;;;;;;;12.65;6.80;;;-1.00;99.90;;;;;;5110898;28;20070;-85
2021/12/23 03:50:39;;;;;;;11.10;5.88;;;-1.00;99.90;;;;;;5069758;28;20032;-85
2021/12/23 03:53:05;;;;;;;7.65;6.38;;;-0.20;99.90;;;;;;5106950;28;20063;-85
2021/12/23 03:55:31;;;;;;;12.90;6.63;;;-1.00;99.90;;;;;;5092041;28;20040;-88
2021/12/23 03:57:56;;;;;;;10.70;7.85;;;-1.00;99.90;;;;;;5076516;28;20130;-85
2021/12/23 04:00:23;;;;;;;13.02;7.80;;;-0.40;99.90;;;;;;5106189;28;20036;-85
2021/12/23 04:02:51;;;;;;;9.20;5.93;;;-0.90;99.90;;;;;;5092613;28;20042;-85
2021/12/23 04:05:18;;;;;;;11.80;6.30;;;-0.40;99.90;;;;;;5091489;28;20035;-85
2021/12/23 04:07:44;;;;;;;12.95;7.10;;;-0.90;99.90;;;;;;5085074;28;20188;-85
2021/12/23 04:10:14;;;;;;;16.63;7.77;;;-0.30;99.90;;;;;;5108958;28;20042;-85
2021/12/23 04:12:41;;;;;;;11.15;5.72;;;0.30;99.90;;;;;;5093092;28;20289;-85
2021/12/23 04:15:07;;;;;;;13.98;7.10;;;-0.90;99.90;;;;;;5088343;28;21534;-85
2021/12/23 04:17:33;;;;;;;10.60;6.30;;;-0.90;99.90;;;;;;5097309;28;20061;-85
2021/12/23 04:20:12;;;;;;;9.75;5.82;;;-0.20;99.90;;;;;;5092741;28;20043;-85
2021/12/23 04:22:38;;;;;;;12.77;7.60;;;-0.60;99.90;;;;;;5094742;28;20040;-84
2021/12/23 04:25:04;;;;;;;10.82;5.57;;;-0.80;99.90;;;;;;5091603;28;20043;-84
2021/12/23 04:27:30;;;;;;;11.47;6.93;;;-0.80;99.90;;;;;;5091532;28;20040;-84
2021/12/23 04:29:56;;;;;;;10.68;6.75;;;0.30;99.90;;;;;;5093063;28;20046;-85
2021/12/23 04:32:22;;;;;;;9.25;5.40;;;0.00;99.90;;;;;;5108068;28;20385;-85
2021/12/23 04:34:48;;;;;;;15.98;9.07;;;0.00;99.90;;;;;;5080615;28;20044;-84
2021/12/23 04:37:14;;;;;;;10.32;6.32;;;-0.80;99.90;;;;;;5091832;28;20135;-84
2021/12/23 04:39:40;;;;;;;10.68;6.53;;;0.30;99.90;;;;;;5110001;28;20126;-85
2021/12/23 04:42:06;;;;;;;11.70;5.57;;;-0.80;99.90;;;;;;5093784;28;20524;-85
2021/12/23 04:44:31;;;;;;;10.32;6.13;;;-0.80;99.90;;;;;;5091327;28;20139;-85
2021/12/23 04:46:57;;;;;;;17.33;7.90;;;-0.80;99.90;;;;;;5077919;28;20050;-85
2021/12/23 04:49:23;;;;;;;10.45;6.53;;;-0.80;99.90;;;;;;5076667;28;20093;-85
2021/12/23 04:51:49;;;;;;;8.75;5.15;;;-0.70;99.90;;;;;;5109236;28;20039;-84
2021/12/23 04:54:15;;;;;;;9.07;6.15;;;-0.70;99.90;;;;;;5105451;28;20088;-85
2021/12/23 04:56:41;;;;;;;11.10;7.20;;;-0.70;99.90;;;;;;5093942;28;20047;-84
2021/12/23 04:59:06;;;;;;;11.45;6.50;;;-0.70;99.90;;;;;;5087270;28;20036;-85
2021/12/23 05:01:33;;;;;;;15.07;7.78;;;-0.50;99.90;;;;;;5063066;28;20469;-84
2021/12/23 05:03:59;;;;;;;11.63;6.30;;;-0.70;99.90;;;;;;5093804;28;20121;-84
2021/12/23 05:06:26;;;;;;;12.82;7.65;;;-0.60;99.90;;;;;;5092931;28;20047;-85
2021/12/23 05:08:52;;;;;;;8.20;6.23;;;-0.70;99.90;;;;;;5110242;28;20460;-84
2021/12/23 05:11:18;;;;;;;15.15;7.63;;;-0.70;99.90;;;;;;5113203;28;20273;-85
2021/12/23 05:13:47;;;;;;;9.40;6.30;;;-0.70;99.90;;;;;;5092679;28;20126;-85
2021/12/23 05:16:14;;;;;;;8.13;5.57;;;0.00;99.90;;;;;;5100501;27;20078;-84
2021/12/23 05:18:40;;;;;;;12.40;5.88;;;0.00;99.90;;;;;;5117278;27;20095;-84
2021/12/23 05:21:07;;;;;;;15.02;6.05;;;-0.70;99.90;;;;;;5115717;27;20481;-85
2021/12/23 05:23:32;;;;;;;9.85;6.07;;;-0.70;99.90;;;;;;5098525;27;20043;-86
2021/12/23 05:25:58;;;;;;;13.63;7.25;;;-0.70;99.90;;;;;;5111478;27;20545;-86
2021/12/23 05:28:24;;;;;;;12.32;5.85;;;0.20;99.90;;;;;;5082133;27;20126;-84
2021/12/23 05:30:49;;;;;;;28.35;6.93;;;0.30;99.90;;;;;;5097338;27;20047;-85
2021/12/23 05:33:15;;;;;;;10.95;6.22;;;-0.60;99.90;;;;;;5099625;27;20058;-85
2021/12/23 05:35:41;;;;;;;8.35;5.88;;;-0.30;99.90;;;;;;5113440;27;20074;-86
2021/12/23 05:38:07;;;;;;;8.02;6.03;;;-0.60;99.90;;;;;;5096796;27;20051;-85
2021/12/23 05:40:34;;;;;;;11.48;6.05;;;0.00;99.90;;;;;;5099543;27;20512;-85
2021/12/23 05:43:00;;;;;;;8.68;4.88;;;-0.70;99.90;;;;;;5113301;27;20043;-84
2021/12/23 05:45:26;;;;;;;13.65;5.95;;;0.30;99.90;;;;;;5095029;27;20129;-84
2021/12/23 05:47:52;;;;;;;11.30;6.40;;;-0.50;99.90;;;;;;5082244;27;20039;-85
2021/12/23 05:50:19;;;;;;;6.28;4.68;;;0.30;99.90;;;;;;5085968;27;20384;-85
2021/12/23 05:52:46;;;;;;;12.18;6.28;;;0.00;99.90;;;;;;5094338;27;20054;-86
2021/12/23 05:55:14;;;;;;;15.30;5.97;;;-0.60;99.90;;;;;;5115197;27;20039;-84
2021/12/23 05:57:40;;;;;;;11.40;6.53;;;-0.70;99.90;;;;;;5125689;27;20050;-85
2021/12/23 06:00:10;;;;;;;9.35;7.25;;;-0.70;99.90;;;;;;5094637;27;20043;-85
2021/12/23 06:02:36;;;;;;;11.98;7.25;;;-0.70;99.90;;;;;;5097508;27;20043;-85
2021/12/23 06:05:03;;;;;;;9.68;6.18;;;-0.60;99.90;;;;;;5115814;27;20413;-85
2021/12/23 06:07:29;;;;;;;13.35;6.03;;;-0.60;99.90;;;;;;5094383;27;20478;-85
2021/12/23 06:09:55;;;;;;;13.88;6.38;;;-0.50;99.90;;;;;;5079583;27;20035;-85
2021/12/23 06:12:20;;;;;;;9.63;5.22;;;-0.70;99.90;;;;;;5096000;27;20035;-84
2021/12/23 06:14:46;;;;;;;10.52;6.78;;;-0.60;99.90;;;;;;5065106;27;20054;-86
2021/12/23 06:17:12;;;;;;;10.70;6.68;;;0.20;99.90;;;;;;5078825;27;20050;-85
2021/12/23 06:19:38;;;;;;;10.57;7.70;;;-0.70;99.90;;;;;;5083183;27;20591;-85
2021/12/23 06:22:03;;;;;;;16.85;6.05;;;-0.60;99.90;;;;;;5078912;27;20054;-84
2021/12/23 06:24:29;;;;;;;11.50;5.72;;;-0.60;99.90;;;;;;5095952;27;20127;-84
2021/12/23 06:26:55;;;;;;;12.85;5.95;;;0.20;99.90;;;;;;5095294;27;20055;-86
2021/12/23 06:29:26;;;;;;;15.88;7.25;;;0.20;99.90;;;;;;5095209;27;20370;-85
2021/12/23 06:31:52;;;;;;;9.75;8.07;;;-0.60;99.90;;;;;;5115308;27;20118;-85
2021/12/23 06:34:18;;;;;;;13.02;6.90;;;-0.60;99.90;;;;;;5097499;27;20114;-84
2021/12/23 06:36:44;;;;;;;14.18;7.65;;;-0.60;99.90;;;;;;5080205;27;20137;-85
2021/12/23 06:39:10;;;;;;;10.33;5.60;;;-0.60;99.90;;;;;;5117920;27;20075;-85
2021/12/23 06:41:35;;;;;;;11.50;6.65;;;0.10;99.90;;;;;;5115247;27;20516;-85
2021/12/23 06:44:01;;;;;;;11.15;6.72;;;-0.50;99.90;;;;;;5080318;27;20046;-84
2021/12/23 06:46:27;;;;;;;14.20;7.50;;;-0.40;99.90;;;;;;5095861;27;20162;-83
2021/12/23 06:48:53;;;;;;;9.80;7.03;;;-0.50;99.90;;;;;;5098162;27;20055;-85
2021/12/23 06:51:19;;;;;;;11.75;6.80;;;-0.50;99.90;;;;;;5103225;27;20043;-83
2021/12/23 06:53:45;;;;;;;13.00;7.82;;;0.10;99.90;;;;;;5115311;27;20051;-85
2021/12/23 06:56:13;;;;;;;13.82;8.70;;;0.30;99.90;;;;;;5105048;27;20381;-85
2021/12/23 06:58:39;;;;;;;13.43;7.80;;;0.30;99.90;;;;;;5099143;27;20078;-87
2021/12/23 07:01:05;;;;;;;13.40;6.47;;;-0.50;99.90;;;;;;5092966;27;20039;-87
2021/12/23 07:03:58;;;;;;;11.27;6.05;;;-0.50;99.90;;;;;;5114701;27;20043;-87
2021/12/23 07:06:23;;;;;;;12.25;7.10;;;0.30;99.90;;;;;;5114494;27;20035;-87
2021/12/23 07:08:49;;;;;;;12.25;8.10;;;-0.50;99.90;;;;;;5114066;27;20500;-86
2021/12/23 07:11:15;;;;;;;17.50;7.83;;;-0.50;99.90;;;;;;5063883;27;20501;-86
2021/12/23 07:13:41;;;;;;;9.80;6.55;;;-0.50;99.90;;;;;;5097909;27;20356;-87
2021/12/23 07:16:07;;;;;;;9.68;7.20;;;-0.50;99.90;;;;;;5113926;27;20123;-87
2021/12/23 07:18:32;;;;;;;15.45;7.38;;;-0.50;99.90;;;;;;5122631;27;20100;-87
2021/12/23 07:20:58;;;;;;;17.52;7.35;;;-0.40;99.90;;;;;;5076327;27;20448;-87
2021/12/23 07:23:24;;;;;;;12.38;7.30;;;-0.40;99.90;;;;;;5080621;27;20042;-85
2021/12/23 07:25:49;;;;;;;12.82;8.18;;;0.50;99.90;;;;;;5130198;27;20039;-83
2021/12/23 07:28:15;;;;;;;13.73;8.05;;;-0.50;99.90;;;;;;5090636;27;20046;-87
2021/12/23 07:30:41;;;;;;;6.05;5.38;;;-0.40;99.90;;;;;;5091642;28;20088;-89
2021/12/23 07:33:07;;;;;;;12.57;6.93;;;-0.50;99.90;;;;;;5078968;28;20043;-87
2021/12/23 07:35:35;;;;;;;11.80;6.95;;;0.00;99.90;;;;;;5087626;28;20056;-87
2021/12/23 07:38:03;;;;;;;11.38;6.40;;;-0.50;99.90;;;;;;5059359;28;20047;-89
2021/12/23 07:40:30;;;;;;;13.15;7.53;;;0.50;99.90;;;;;;5094591;28;20048;-89
2021/12/23 07:42:58;;;;;;;;;;;-0.50;99.90;;;;;;5088751;28;20043;-88
2021/12/23 07:45:39;;;;;;;7.25;5.28;;;0.40;99.90;;;;;;5093541;27;19983;-89
2021/12/23 07:48:08;;;;;;;12.55;7.90;;;-1.10;99.90;;;;;;5090657;28;20485;-89
2021/12/23 07:50:34;;;;;;;9.05;6.05;;;0.00;99.90;;;;;;5068147;28;20593;-89
2021/12/23 07:53:02;;;;;;;15.25;7.68;;;0.40;99.90;;;;;;5099873;27;20236;-87
2021/12/23 07:55:31;;;;;;;9.25;5.25;;;0.30;99.90;;;;;;5113546;27;20043;-92
2021/12/23 07:57:56;;;;;;;12.75;7.07;;;-0.50;99.90;;;;;;5092009;27;20122;-85
2021/12/23 08:00:22;;;;;;;13.85;8.35;;;0.40;99.90;;;;;;5091836;27;20429;-87
2021/12/23 08:02:48;;;;;;;10.68;6.35;;;-0.70;99.90;;;;;;5097045;27;20039;-86
2021/12/23 08:05:14;;;;;;;15.47;8.37;;;-1.50;99.90;;;;;;5113335;27;20051;-85
2021/12/23 08:07:39;;;;;;;18.40;7.00;;;-0.40;99.90;;;;;;5096923;27;20051;-86
2021/12/23 08:10:06;;;;;;;13.65;6.93;;;0.50;99.90;;;;;;5091715;27;20453;-88
2021/12/23 08:12:32;;;;;;;17.88;7.32;;;-0.50;99.90;;;;;;5078105;27;20491;-87
2021/12/23 08:14:57;;;;;;;13.95;8.68;;;-0.50;99.90;;;;;;5079880;27;20063;-87
2021/12/23 08:17:23;;;;;;;8.82;6.85;;;0.10;99.90;;;;;;5095962;27;20038;-86
2021/12/23 08:19:49;;;;;;;14.93;7.35;;;0.30;99.90;;;;;;5079409;27;20047;-86
2021/12/23 08:22:14;;;;;;;11.27;7.75;;;0.30;99.90;;;;;;5097462;28;20031;-85
2021/12/23 08:24:40;;;;;;;13.52;7.70;;;-0.20;99.90;;;;;;5092713;27;20042;-87
2021/12/23 08:27:09;;;;;;;15.30;8.35;;;-0.50;99.90;;;;;;5090482;27;20035;-89
2021/12/23 08:29:34;;;;;;;13.13;7.13;;;-0.50;99.90;;;;;;5110975;27;20046;-86
2021/12/23 08:32:00;;;;;;;16.15;8.63;;;-0.50;99.90;;;;;;5088347;27;20043;-87
2021/12/23 08:34:26;;;;;;;15.35;7.65;;;-0.50;99.90;;;;;;5090876;27;20484;-86
2021/12/23 08:36:53;;;;;;;13.93;7.45;;;0.20;99.90;;;;;;5075410;28;20113;-87
2021/12/23 08:39:19;;;;;;;22.08;9.15;;;-0.50;99.90;;;;;;5092950;28;20047;-87
2021/12/23 08:41:46;;;;;;;23.75;7.18;;;-0.50;99.90;;;;;;5077839;28;20040;-86
2021/12/23 08:44:12;;;;;;;21.63;8.52;;;-0.40;99.90;;;;;;5068652;28;20043;-86
2021/12/23 08:46:38;;;;;;;14.10;8.75;;;-0.40;99.90;;;;;;5059117;28;20048;-86
2021/12/23 08:49:05;;;;;;;11.93;6.93;;;-0.40;99.90;;;;;;5059072;28;20051;-85
2021/12/23 08:51:33;;;;;;;9.20;6.78;;;-0.40;99.90;;;;;;5062568;28;20044;-85
2021/12/23 08:53:58;;;;;;;13.23;9.27;;;-0.40;99.90;;;;;;5101011;28;20513;-86
2021/12/23 08:56:24;;;;;;;11.77;7.93;;;-0.10;99.90;;;;;;5075191;28;20006;-86
2021/12/23 08:58:56;;;;;;;20.48;10.45;;;-0.40;99.90;;;;;;5108642;28;20055;-81
2021/12/23 09:01:23;;;;;;;20.40;9.30;;;0.70;99.90;;;;;;5097412;28;20100;-89
2021/12/23 09:03:49;;;;;;;18.60;10.02;;;0.10;99.90;;;;;;5078516;28;20134;-87
2021/12/23 09:06:17;;;;;;;14.45;8.10;;;-0.40;99.90;;;;;;5079610;28;20102;-88
2021/12/23 09:08:43;;;;;;;24.85;11.23;;;0.50;99.90;;;;;;5096681;28;20051;-87
2021/12/23 09:11:11;;;;;;;15.13;8.95;;;0.70;99.90;;;;;;5097113;28;20035;-87
2021/12/23 09:13:37;;;;;;;15.02;8.30;;;0.40;99.90;;;;;;5078746;28;20047;-87
2021/12/23 09:16:03;;;;;;;16.42;8.18;;;0.60;99.90;;;;;;5071634;28;20054;-87
2021/12/23 09:18:36;;;;;;;19.90;8.77;;;-0.40;99.90;;;;;;5081059;28;20048;-87
2021/12/23 09:21:04;;;;;;;14.00;7.72;;;0.70;99.90;;;;;;5081951;28;20094;-87
2021/12/23 09:23:31;;;;;;;18.65;8.85;;;0.40;99.90;;;;;;5073353;28;20047;-87
2021/12/23 09:25:57;;;;;;;19.10;9.18;;;-0.40;99.90;;;;;;5097981;28;20043;-87
2021/12/23 09:33:38;;;;;;;17.33;8.93;;;0.70;99.90;;;;;;5086667;28;20059;-87
2021/12/23 09:36:05;;;;;;;20.58;10.38;;;-0.40;99.90;;;;;;5095737;28;20060;-87
2021/12/23 09:38:33;;;;;;;12.50;7.85;;;-0.40;99.90;;;;;;5089189;28;20490;-87
2021/12/23 09:41:01;;;;;;;17.33;9.38;;;0.30;99.90;;;;;;5078233;28;20058;-90
2021/12/23 09:43:28;;;;;;;16.35;10.25;;;-0.90;99.90;;;;;;5066958;28;20040;-86
2021/12/23 09:45:55;;;;;;;22.23;11.05;;;-0.40;99.90;;;;;;5109118;28;20051;-91
2021/12/23 09:48:26;;;;;;;24.38;8.70;;;-0.40;99.90;;;;;;5074952;28;20048;-88
2021/12/23 09:50:52;;;;;;;24.30;13.43;;;-0.70;99.90;;;;;;5073093;28;20047;-87
2021/12/23 09:53:21;;;;;;;25.73;10.95;;;0.90;99.90;;;;;;5086578;28;20146;-88
2021/12/23 09:55:47;;;;;;;19.50;11.20;;;-0.10;99.90;;;;;;5091015;28;20127;-83
2021/12/23 09:58:13;;;;;;;18.90;12.30;;;-0.30;99.90;;;;;;5081583;28;20043;-87
2021/12/23 10:00:46;;;;;;;15.45;10.80;;;-0.30;99.90;;;;;;5085192;28;20126;-87
2021/12/23 10:03:20;;;;;;;16.65;10.93;;;-0.30;99.90;;;;;;5071783;28;20131;-85
2021/12/23 10:05:46;;;;;;;19.05;10.38;;;0.00;99.90;;;;;;5098570;28;20052;-84
2021/12/23 10:08:14;;;;;;;16.45;12.52;;;-0.10;99.90;;;;;;5104038;28;20057;-84
2021/12/23 10:11:04;;;;;;;23.73;12.93;;;-0.30;99.90;;;;;;5092079;28;20051;-84
2021/12/23 10:30:28;;;;;;;20.27;9.93;;;0.50;99.90;;;;;;5123006;27;20062;-83
2021/12/23 10:33:46;;;;;;;20.70;11.77;;;-0.20;99.90;;;;;;5109772;28;20051;-86
2021/12/23 10:38:32;;;;;;;17.17;9.85;;;-0.20;99.90;;;;;;5115926;27;19990;-84
2021/12/23 10:41:03;;;;;;;23.88;11.80;;;-0.10;99.90;;;;;;5091140;28;20735;-83
2021/12/23 10:43:34;;;;;;;18.33;10.68;;;-0.10;99.90;;;;;;5103055;28;20047;-83
2021/12/23 10:46:09;;;;;;;25.35;12.13;;;-0.10;99.90;;;;;;5107144;28;20059;-84
2021/12/23 10:48:45;;;;;;;21.55;14.43;;;-0.10;99.90;;;;;;5094360;28;20143;-83
2021/12/23 10:51:16;;;;;;;20.23;11.27;;;1.10;99.90;;;;;;5113859;28;20413;-83
2021/12/23 10:54:18;;;;;;;19.48;13.43;;;-0.10;99.90;;;;;;5111586;28;20088;-83
2021/12/23 10:59:30;;;;;;;15.68;10.65;;;0.10;99.90;;;;;;5097775;28;20062;-83
2021/12/23 11:02:09;;;;;;;25.58;12.02;;;-0.10;99.90;;;;;;5106685;28;20370;-83
2021/12/23 11:04:50;;;;;;;25.58;15.02;;;-0.10;99.90;;;;;;5106407;28;20497;-83
2021/12/23 11:07:24;;;;;;;28.88;13.48;;;-0.10;99.90;;;;;;5111479;28;20040;-82
2021/12/23 11:10:15;;;;;;;29.85;13.82;;;-0.10;99.90;;;;;;5108474;28;20043;-83
2021/12/23 11:37:42;;;;;;;20.48;12.13;;;-0.10;99.90;;;;;;5118997;27;20058;-87
2021/12/23 11:40:26;;;;;;;24.45;13.15;;;-0.10;99.90;;;;;;5090016;28;20482;-83
2021/12/23 11:43:25;;;;;;;23.98;12.18;;;-0.10;99.90;;;;;;5099182;27;20063;-82
2021/12/23 11:45:50;;;;;;;17.50;11.38;;;-0.10;99.90;;;;;;5081146;28;20109;-82
2021/12/23 11:48:17;;;;;;;20.90;13.15;;;0.00;99.90;;;;;;5076031;28;20048;-83
2021/12/23 11:50:54;;;;;;;27.80;13.88;;;0.00;99.90;;;;;;5086482;28;20047;-83
2021/12/23 11:53:26;;;;;;;24.13;13.75;;;-0.10;99.90;;;;;;5095907;28;20043;-82
2021/12/23 11:55:53;;;;;;;23.13;13.05;;;-0.10;99.90;;;;;;5115704;27;20035;-83
2021/12/23 11:58:26;;;;;;;22.48;12.18;;;0.00;99.90;;;;;;5090975;28;20498;-82
2021/12/23 12:01:14;;;;;;;22.83;13.10;;;-0.10;99.90;;;;;;5109505;28;20118;-83
2021/12/23 12:03:55;;;;;;;20.60;12.15;;;0.00;99.90;;;;;;5110029;28;20036;-82
2021/12/23 12:06:42;;;;;;;27.27;15.63;;;0.00;99.90;;;;;;5109274;28;20040;-84
2021/12/23 12:09:12;;;;;;;25.13;13.02;;;0.00;99.90;;;;;;5093809;28;20073;-83
2021/12/23 12:11:39;;;;;;;25.60;13.20;;;0.00;99.90;;;;;;5108845;28;20089;-84
2021/12/23 12:14:25;;;;;;;37.50;17.05;;;0.00;99.90;;;;;;5089590;28;20436;-84
2021/12/23 12:16:50;;;;;;;22.77;12.90;;;0.50;99.90;;;;;;5090289;28;20047;-84
2021/12/23 12:19:36;;;;;;;26.70;13.65;;;0.70;99.90;;;;;;5105238;28;20036;-84
2021/12/23 12:28:46;;;;;;;25.10;11.25;;;0.10;99.90;;;;;;5092827;28;20058;-84
2021/12/23 12:31:42;;;;;;;30.00;14.65;;;0.20;99.90;;;;;;5113132;28;20044;-84
2021/12/23 12:34:55;;;;;;;20.05;12.98;;;0.10;99.90;;;;;;5099664;28;20477;-84
2021/12/23 12:45:54;;;;;;;23.10;11.25;;;0.10;99.90;;;;;;5044024;28;20079;-84
2021/12/23 12:53:05;;;;;;;30.83;12.90;;;-0.10;99.90;;;;;;5105389;28;20480;-83
2021/12/23 12:56:24;;;;;;;21.45;11.75;;;0.20;99.90;;;;;;5104469;28;20035;-85
2021/12/23 13:02:35;;;;;;;28.38;13.10;;;0.10;99.90;;;;;;4945250;28;20055;-85
2021/12/23 13:05:09;;;;;;;35.00;15.20;;;0.20;99.90;;;;;;4996378;28;20161;-83
2021/12/23 13:07:41;;;;;;;27.15;15.65;;;0.20;99.90;;;;;;5076891;28;20067;-82
2021/12/23 13:10:15;;;;;;;28.65;14.88;;;0.20;99.90;;;;;;5107506;28;20069;-86
2021/12/23 13:12:51;;;;;;;28.55;13.93;;;0.20;99.90;;;;;;5094769;28;20401;-85
2021/12/23 13:15:28;;;;;;;22.75;13.65;;;0.20;99.90;;;;;;5111876;28;20086;-85
2021/12/23 13:17:57;;;;;;;;;;;0.20;99.90;;;;;;5095016;28;20138;-86
2021/12/23 13:20:40;;;;;;;19.83;12.80;;;0.20;99.90;;;;;;5098301;28;19927;-85
2021/12/23 13:23:12;;;;;;;16.92;12.52;;;0.20;99.90;;;;;;5094292;28;20051;-85
2021/12/23 13:25:49;;;;;;;29.45;14.23;;;1.00;99.90;;;;;;5111794;28;20048;-85
2021/12/23 13:28:43;;;;;;;30.45;14.82;;;0.60;99.90;;;;;;5111794;28;20134;-85
2021/12/23 13:31:23;;;;;;;27.92;14.80;;;0.20;99.90;;;;;;5111197;28;20450;-85
2021/12/23 13:33:55;;;;;;;31.65;14.35;;;0.20;99.90;;;;;;5094371;28;20043;-85
2021/12/23 13:36:22;;;;;;;26.88;15.15;;;0.90;99.90;;;;;;5111447;28;20047;-85
2021/12/23 13:38:57;;;;;;;23.25;15.63;;;0.20;99.90;;;;;;5114057;28;20044;-86
2021/12/23 13:41:29;;;;;;;21.27;13.60;;;0.20;99.90;;;;;;5115480;28;20138;-85
2021/12/23 13:44:01;;;;;;;34.80;15.13;;;0.20;99.90;;;;;;5097904;28;20045;-85
2021/12/23 13:46:29;;;;;;;24.92;13.98;;;0.20;99.90;;;;;;5115401;28;20047;-85
2021/12/23 13:48:59;;;;;;;23.17;13.63;;;0.20;99.90;;;;;;5081116;28;20134;-85
2021/12/23 13:51:29;;;;;;;27.85;14.90;;;1.10;99.90;;;;;;5097903;28;20126;-85
2021/12/23 13:54:17;;;;;;;29.67;15.07;;;0.20;99.90;;;;;;5114912;28;20051;-85
2021/12/23 13:56:46;;;;;;;24.27;14.48;;;0.20;99.90;;;;;;5115257;28;20047;-85
2021/12/23 13:59:24;;;;;;;32.55;15.57;;;0.30;99.90;;;;;;5097147;28;20036;-85
2021/12/23 14:01:57;;;;;;;28.45;14.80;;;0.20;99.90;;;;;;5114734;28;20113;-85
2021/12/23 14:04:36;;;;;;;24.60;16.30;;;0.30;99.90;;;;;;5114927;28;20073;-85
2021/12/23 14:07:07;;;;;;;27.63;13.45;;;1.10;99.90;;;;;;5097706;28;20412;-85
2021/12/23 14:09:40;;;;;;;27.55;15.95;;;0.30;99.90;;;;;;5114842;28;20043;-85
2021/12/23 14:12:07;;;;;;;33.15;16.20;;;0.30;99.90;;;;;;5114477;28;20048;-85
2021/12/23 14:14:33;;;;;;;26.45;14.13;;;0.30;99.90;;;;;;5114770;28;20058;-84